Time;durP1;ratioP1;P1;durP2;ratioP2;P2;SDS_P1;SDS_P2;PMS_P1;PMS_P2;Temp;Humidity;BMP_temperature;BMP_pressure;BME280_temperature;BME280_humidity;BME280_pressure;Samples;Min_cycle;Max_cycle;Signal;HPM_P1;HPM_P2
2021/06/19 00:02:22;;;;;;;22.40;11.82;;;;;;;-145.50;100.00;65435.88;4899812;29;20087;-50
2021/06/19 00:04:49;;;;;;;20.98;11.82;;;;;;;-145.50;100.00;65435.88;4907027;29;20083;-50
2021/06/19 00:07:15;;;;;;;19.95;12.45;;;;;;;-145.50;100.00;65435.88;4899529;29;20146;-52
2021/06/19 00:09:42;;;;;;;20.85;13.63;;;;;;;-145.50;100.00;65435.88;4900371;29;20441;-51
2021/06/19 00:12:09;;;;;;;23.92;13.38;;;;;;;-145.50;100.00;65435.88;4895053;29;20486;-51
2021/06/19 00:14:36;;;;;;;23.95;12.52;;;;;;;-145.50;100.00;65435.88;4900387;29;20574;-50
2021/06/19 00:17:03;;;;;;;23.73;13.15;;;;;;;-145.50;100.00;65435.88;4898648;29;20175;-51
2021/06/19 00:19:29;;;;;;;18.50;11.98;;;;;;;-145.50;100.00;65435.88;4896095;29;20562;-51
2021/06/19 00:21:56;;;;;;;17.98;12.43;;;;;;;-145.50;100.00;65435.88;4906874;29;20139;-51
2021/06/19 00:24:23;;;;;;;19.88;13.07;;;;;;;-145.50;100.00;65435.88;4892931;29;20147;-51
2021/06/19 00:26:51;;;;;;;24.55;14.23;;;;;;;-145.50;100.00;65435.88;4884543;29;20131;-53
2021/06/19 00:29:18;;;;;;;18.40;13.00;;;;;;;-145.50;100.00;65435.88;4901129;29;20800;-51
2021/06/19 00:31:45;;;;;;;22.80;11.80;;;;;;;-145.50;100.00;65435.88;4872150;29;20800;-49
2021/06/19 00:34:12;;;;;;;18.77;12.23;;;;;;;-145.50;100.00;65435.88;4903778;29;20846;-51
2021/06/19 00:36:39;;;;;;;19.73;12.88;;;;;;;-145.50;100.00;65435.88;4886110;29;20146;-49
2021/06/19 00:39:07;;;;;;;16.73;11.52;;;;;;;-145.50;100.00;65435.88;4897170;29;20091;-50
2021/06/19 00:41:34;;;;;;;17.90;11.65;;;;;;;-145.50;100.00;65435.88;4901887;29;20498;-51
2021/06/19 00:44:03;;;;;;;20.15;11.38;;;;;;;-145.50;100.00;65435.88;4906190;29;20052;-52
2021/06/19 00:46:29;;;;;;;18.88;12.45;;;;;;;-145.50;100.00;65435.88;4900819;29;20139;-49
2021/06/19 00:48:56;;;;;;;20.17;12.45;;;;;;;-145.50;100.00;65435.88;4894378;29;20051;-49
2021/06/19 00:51:23;;;;;;;20.60;13.20;;;;;;;-145.50;100.00;65435.88;4901848;29;20630;-50
2021/06/19 00:53:50;;;;;;;22.92;13.98;;;;;;;-145.50;100.00;65435.88;4896179;29;20059;-51
2021/06/19 00:56:19;;;;;;;23.00;14.63;;;;;;;-145.50;100.00;65435.88;4907566;29;20056;-52
2021/06/19 00:58:46;;;;;;;22.52;13.45;;;;;;;-145.50;100.00;65435.88;4901879;29;20163;-49
2021/06/19 01:01:12;;;;;;;21.13;14.48;;;;;;;-145.50;100.00;65435.88;4887749;29;20245;-49
2021/06/19 01:03:39;;;;;;;28.80;19.08;;;;;;;-145.50;100.00;65435.88;4891384;29;20582;-49
2021/06/19 01:06:06;;;;;;;25.40;14.48;;;;;;;-145.50;100.00;65435.88;4899837;29;20131;-49
2021/06/19 01:08:33;;;;;;;16.52;12.90;;;;;;;-145.50;100.00;65435.88;4906516;29;20155;-50
2021/06/19 01:10:59;;;;;;;14.13;9.68;;;;;;;-145.50;100.00;65435.88;4901258;29;20091;-49
2021/06/19 01:13:26;;;;;;;14.65;8.50;;;;;;;-145.50;100.00;65435.88;4905209;29;20151;-49
2021/06/19 01:15:52;;;;;;;16.92;7.63;;;;;;;-145.50;100.00;65435.88;4900788;29;20139;-49
2021/06/19 01:18:36;;;;;;;10.02;7.07;;;;;;;-145.50;100.00;65435.88;4902250;29;20067;-49
2021/06/19 01:21:03;;;;;;;12.10;6.80;;;;;;;-145.50;100.00;65435.88;4897188;29;20504;-50
2021/06/19 01:23:31;;;;;;;10.68;5.32;;;;;;;-145.50;100.00;65435.88;4905114;29;20048;-48
2021/06/19 01:25:57;;;;;;;8.00;4.82;;;;;;;-145.50;100.00;65435.88;4900182;29;20612;-49
2021/06/19 01:28:24;;;;;;;11.38;5.15;;;;;;;-145.50;100.00;65435.88;4906214;29;20143;-50
2021/06/19 01:30:50;;;;;;;10.73;4.70;;;;;;;-145.50;100.00;65435.88;4906390;29;20559;-49
2021/06/19 01:33:17;;;;;;;6.95;4.68;;;;;;;-145.50;100.00;65435.88;4896814;29;20051;-48
2021/06/19 01:35:43;;;;;;;9.77;4.43;;;;;;;-145.50;100.00;65435.88;4896020;29;20220;-49
2021/06/19 01:38:10;;;;;;;7.95;4.20;;;;;;;-145.50;100.00;65435.88;4899607;29;20074;-49
2021/06/19 01:40:37;;;;;;;9.57;3.97;;;;;;;-145.50;100.00;65435.88;4906956;29;20080;-48
2021/06/19 01:43:03;;;;;;;7.60;4.30;;;;;;;-145.50;100.00;65435.88;4900477;29;20095;-51
2021/06/19 01:45:34;;;;;;;15.82;4.68;;;;;;;-145.50;100.00;65435.88;4905322;29;20143;-49
2021/06/19 01:48:03;;;;;;;11.32;4.57;;;;;;;-145.50;100.00;65435.88;4878524;29;20107;-52
2021/06/19 01:50:31;;;;;;;9.93;5.28;;;;;;;-145.50;100.00;65435.88;4905667;29;20116;-51
2021/06/19 01:52:59;;;;;;;9.63;4.55;;;;;;;-145.50;100.00;65435.88;4905668;29;20126;-50
2021/06/19 01:55:25;;;;;;;8.05;4.43;;;;;;;-145.50;100.00;65435.88;4900596;29;20091;-51
2021/06/19 01:57:54;;;;;;;7.25;4.38;;;;;;;-145.50;100.00;65435.88;4906580;29;20087;-50
2021/06/19 02:00:24;;;;;;;9.05;4.43;;;;;;;-145.50;100.00;65435.88;4896844;29;20895;-51
2021/06/19 02:02:51;;;;;;;12.98;5.15;;;;;;;-145.50;100.00;65435.88;4901251;29;20098;-51
2021/06/19 02:05:20;;;;;;;7.40;4.93;;;;;;;-145.50;100.00;65435.88;4900027;29;20158;-51
2021/06/19 02:07:48;;;;;;;;;;;;;;;-145.50;100.00;65435.88;4906276;29;20144;-49
2021/06/19 02:10:16;;;;;;;7.75;4.72;;;;;;;-145.50;100.00;65435.88;4906413;29;20774;-51
2021/06/19 02:12:45;;;;;;;6.47;5.30;;;;;;;-145.50;100.00;65435.88;4899410;29;20476;-51
2021/06/19 02:15:12;;;;;;;6.82;4.95;;;;;;;-145.50;100.00;65435.88;4900980;29;20138;-52
2021/06/19 02:17:39;;;;;;;14.15;5.53;;;;;;;-145.50;100.00;65435.88;4896789;29;20096;-50
2021/06/19 02:20:08;;;;;;;10.05;5.35;;;;;;;-145.50;100.00;65435.88;4908260;29;20152;-51
2021/06/19 02:22:35;;;;;;;8.73;5.18;;;;;;;-145.50;100.00;65435.88;4903319;29;20056;-50
2021/06/19 02:25:07;;;;;;;7.25;5.07;;;;;;;-145.50;100.00;65435.88;4907625;29;20084;-51
2021/06/19 02:27:34;;;;;;;9.88;5.40;;;;;;;-145.50;100.00;65435.88;4903140;29;20151;-51
2021/06/19 02:30:00;;;;;;;6.40;5.05;;;;;;;-145.50;100.00;65435.88;4903486;29;20250;-50
2021/06/19 02:32:27;;;;;;;8.60;5.65;;;;;;;-145.50;100.00;65435.88;4908181;29;20134;-51
2021/06/19 02:34:54;;;;;;;7.07;5.45;;;;;;;-145.50;100.00;65435.88;4902984;29;20119;-50
2021/06/19 02:37:20;;;;;;;9.88;5.80;;;;;;;-145.50;100.00;65435.88;4889943;29;20151;-50
2021/06/19 02:39:47;;;;;;;8.60;5.78;;;;;;;-145.50;100.00;65435.88;4900889;29;20134;-50
2021/06/19 02:42:13;;;;;;;7.43;5.95;;;;;;;-145.50;100.00;65435.88;4904287;29;20746;-51
2021/06/19 02:44:40;;;;;;;10.23;6.47;;;;;;;-145.50;100.00;65435.88;4902638;29;20487;-50
2021/06/19 02:47:06;;;;;;;9.90;5.50;;;;;;;-145.50;100.00;65435.88;4909128;29;20131;-51
2021/06/19 02:49:33;;;;;;;8.98;6.10;;;;;;;-145.50;100.00;65435.88;4909320;29;20052;-50
2021/06/19 02:51:59;;;;;;;11.90;6.47;;;;;;;-145.50;100.00;65435.88;4902442;29;20102;-49
2021/06/19 02:54:26;;;;;;;9.15;6.70;;;;;;;-145.50;100.00;65435.88;4901092;29;20164;-50
2021/06/19 02:56:52;;;;;;;9.65;6.15;;;;;;;-145.50;100.00;65435.88;4890913;29;20068;-51
2021/06/19 02:59:19;;;;;;;9.38;6.63;;;;;;;-145.50;100.00;65435.88;4902194;29;20143;-50
2021/06/19 03:01:45;;;;;;;8.23;6.63;;;;;;;-145.50;100.00;65435.88;4898786;29;20148;-51
2021/06/19 03:04:15;;;;;;;9.80;6.38;;;;;;;-145.50;100.00;65435.88;4907570;29;20064;-51
2021/06/19 03:06:42;;;;;;;8.65;6.88;;;;;;;-145.50;100.00;65435.88;4904019;29;20060;-51
2021/06/19 03:09:09;;;;;;;10.38;6.32;;;;;;;-145.50;100.00;65435.88;4897018;29;20147;-50
2021/06/19 03:11:36;;;;;;;12.90;6.40;;;;;;;-145.50;100.00;65435.88;4905832;29;20515;-51
2021/06/19 03:14:02;;;;;;;11.57;6.88;;;;;;;-145.50;100.00;65435.88;4900989;29;20135;-51
2021/06/19 03:16:29;;;;;;;10.73;6.75;;;;;;;-145.50;100.00;65435.88;4891226;29;20087;-50
2021/06/19 03:18:56;;;;;;;11.63;7.28;;;;;;;-145.50;100.00;65435.88;4898591;29;20056;-50
2021/06/19 03:21:23;;;;;;;10.25;7.00;;;;;;;-145.50;100.00;65435.88;4909350;29;20255;-50
2021/06/19 03:23:49;;;;;;;10.73;7.63;;;;;;;-145.50;100.00;65435.88;4885189;29;20061;-50
2021/06/19 03:26:16;;;;;;;11.43;7.22;;;;;;;-145.50;100.00;65435.88;4904419;29;20084;-51
2021/06/19 03:28:42;;;;;;;13.18;7.70;;;;;;;-145.50;100.00;65435.88;4908316;29;20670;-50
2021/06/19 03:31:09;;;;;;;12.68;7.00;;;;;;;-145.50;100.00;65435.88;4900961;29;20055;-50
2021/06/19 03:33:35;;;;;;;10.57;6.72;;;;;;;-145.50;100.00;65435.88;4908460;29;20134;-50
2021/06/19 03:36:02;;;;;;;10.15;7.10;;;;;;;-145.50;100.00;65435.88;4899945;29;20147;-51
2021/06/19 03:38:29;;;;;;;10.70;6.97;;;;;;;-145.50;100.00;65435.88;4903022;29;20164;-50
2021/06/19 03:40:55;;;;;;;17.38;7.70;;;;;;;-145.50;100.00;65435.88;4902577;29;20116;-50
2021/06/19 03:43:21;;;;;;;11.95;7.40;;;;;;;-145.50;100.00;65435.88;4907638;29;20127;-50
2021/06/19 03:45:48;;;;;;;11.93;7.20;;;;;;;-145.50;100.00;65435.88;4908281;29;20579;-50
2021/06/19 03:48:15;;;;;;;11.88;7.43;;;;;;;-145.50;100.00;65435.88;4901914;29;20143;-52
2021/06/19 03:50:41;;;;;;;10.20;7.53;;;;;;;-145.50;100.00;65435.88;4903645;29;20547;-50
2021/06/19 03:53:08;;;;;;;10.65;7.25;;;;;;;-145.50;100.00;65435.88;4898180;29;20143;-52
2021/06/19 03:55:34;;;;;;;12.52;7.13;;;;;;;-145.50;100.00;65435.88;4906674;29;20857;-51
2021/06/19 03:58:01;;;;;;;15.90;7.65;;;;;;;-145.50;100.00;65435.88;4902483;29;20088;-52
2021/06/19 04:00:29;;;;;;;8.73;7.45;;;;;;;-145.50;100.00;65435.88;4907868;29;20471;-49
2021/06/19 04:02:56;;;;;;;;;;;;;;;-145.50;100.00;65435.88;4901217;29;20091;-50
2021/06/19 04:05:23;;;;;;;9.52;6.97;;;;;;;-145.50;100.00;65435.88;4904485;29;19933;-50
2021/06/19 04:07:50;;;;;;;14.43;7.55;;;;;;;-145.50;100.00;65435.88;4902587;29;20090;-50
2021/06/19 04:10:17;;;;;;;14.63;7.35;;;;;;;-145.50;100.00;65435.88;4884785;29;20159;-50
2021/06/19 04:12:45;;;;;;;9.90;7.32;;;;;;;-145.50;100.00;65435.88;4889094;29;20064;-51
2021/06/19 04:15:12;;;;;;;11.02;6.78;;;;;;;-145.50;100.00;65435.88;4899674;29;20084;-50
2021/06/19 04:17:39;;;;;;;8.25;6.15;;;;;;;-145.50;100.00;65435.88;4905841;29;20166;-52
2021/06/19 04:20:09;;;;;;;13.90;7.00;;;;;;;-145.50;100.00;65435.88;4884160;29;20163;-49
2021/06/19 04:22:35;;;;;;;8.38;6.20;;;;;;;-145.50;100.00;65435.88;4899104;29;20377;-50
2021/06/19 04:25:04;;;;;;;10.90;6.72;;;;;;;-145.50;100.00;65435.88;4907122;29;20067;-50
2021/06/19 04:27:36;;;;;;;;;;;;;;;-145.50;100.00;65435.88;4897968;29;20139;-49
2021/06/19 04:30:04;;;;;;;8.45;6.43;;;;;;;-145.50;100.00;65435.88;4906321;29;19933;-50
2021/06/19 04:32:30;;;;;;;11.45;6.75;;;;;;;-145.50;100.00;65435.88;4896037;29;20166;-51
2021/06/19 04:34:57;;;;;;;12.68;6.93;;;;;;;-145.50;100.00;65435.88;4902468;29;20479;-51
2021/06/19 04:37:26;;;;;;;10.68;6.22;;;;;;;-145.50;100.00;65435.88;4893208;29;20973;-49
2021/06/19 04:39:58;;;;;;;9.93;6.72;;;;;;;-145.50;100.00;65435.88;4906974;29;20219;-50
2021/06/19 04:42:27;;;;;;;11.98;7.25;;;;;;;-145.50;100.00;65435.88;4901126;29;20524;-49
2021/06/19 04:47:22;;;;;;;9.80;7.78;;;;;;;-145.50;100.00;65435.88;4902533;29;20131;-50
2021/06/19 04:49:49;;;;;;;10.85;8.02;;;;;;;-145.50;100.00;65435.88;4901422;29;20142;-50
2021/06/19 04:52:15;;;;;;;12.85;7.93;;;;;;;-145.50;100.00;65435.88;4906522;29;20095;-53
2021/06/19 04:54:42;;;;;;;9.88;7.43;;;;;;;-145.50;100.00;65435.88;4900950;29;20135;-50
2021/06/19 04:57:10;;;;;;;12.52;8.38;;;;;;;-145.50;100.00;65435.88;4907018;29;20504;-50
2021/06/19 04:59:37;;;;;;;;;;;;;;;-145.50;100.00;65435.88;4880690;29;20083;-50
2021/06/19 05:02:03;;;;;;;13.77;7.28;;;;;;;-145.50;100.00;65435.88;4896629;29;20030;-53
2021/06/19 05:04:30;;;;;;;14.38;7.72;;;;;;;-145.50;100.00;65435.88;4902503;29;20063;-50
2021/06/19 05:06:56;;;;;;;10.95;8.02;;;;;;;-145.50;100.00;65435.88;4888732;29;20147;-49
2021/06/19 05:09:22;;;;;;;10.65;8.10;;;;;;;-145.50;100.00;65435.88;4906695;29;20135;-50
2021/06/19 05:11:49;;;;;;;12.48;9.23;;;;;;;-145.50;100.00;65435.88;4877974;29;20489;-51
2021/06/19 05:14:16;;;;;;;12.50;9.80;;;;;;;-145.50;100.00;65435.88;4900764;29;20066;-49
2021/06/19 05:16:42;;;;;;;11.25;9.20;;;;;;;-145.50;100.00;65435.88;4885396;29;20164;-49
2021/06/19 05:19:11;;;;;;;11.77;9.30;;;;;;;-145.50;100.00;65435.88;4903710;29;20060;-50
2021/06/19 05:21:38;;;;;;;14.80;9.32;;;;;;;-145.50;100.00;65435.88;4896608;29;20580;-49
2021/06/19 05:24:06;;;;;;;15.27;9.73;;;;;;;-145.50;100.00;65435.88;4899249;29;20060;-50
2021/06/19 05:26:33;;;;;;;19.52;9.68;;;;;;;-145.50;100.00;65435.88;4897218;29;20139;-50
2021/06/19 05:28:59;;;;;;;13.25;9.98;;;;;;;-145.50;100.00;65435.88;4891881;29;20552;-50
2021/06/19 05:31:26;;;;;;;13.70;9.95;;;;;;;-145.50;100.00;65435.88;4900383;29;20168;-50
2021/06/19 05:33:53;;;;;;;14.10;9.87;;;;;;;-145.50;100.00;65435.88;4899469;29;20052;-49
2021/06/19 05:36:19;;;;;;;12.95;10.45;;;;;;;-145.50;100.00;65435.88;4906709;29;20281;-49
2021/06/19 05:38:46;;;;;;;12.88;10.05;;;;;;;-145.50;100.00;65435.88;4900642;29;20135;-50
2021/06/19 05:41:12;;;;;;;11.40;9.45;;;;;;;-145.50;100.00;65435.88;4902595;29;20859;-52
2021/06/19 05:43:39;;;;;;;12.43;9.73;;;;;;;-145.50;100.00;65435.88;4902046;29;20079;-51
2021/06/19 05:46:06;;;;;;;14.23;9.77;;;;;;;-145.50;100.00;65435.88;4897395;29;20142;-49
2021/06/19 05:48:32;;;;;;;15.40;10.73;;;;;;;-145.50;100.00;65435.88;4895688;29;20126;-50
2021/06/19 05:50:59;;;;;;;14.88;10.07;;;;;;;-145.50;100.00;65435.88;4890340;29;20434;-53
2021/06/19 05:53:27;;;;;;;14.13;10.38;;;;;;;-145.50;100.00;65435.88;4905362;29;20139;-51
2021/06/19 05:55:54;;;;;;;15.25;11.73;;;;;;;-145.50;100.00;65435.88;4899541;29;20139;-52
2021/06/19 05:58:20;;;;;;;17.03;12.43;;;;;;;-145.50;100.00;65435.88;4906928;29;20071;-51
2021/06/19 06:00:47;;;;;;;13.57;10.98;;;;;;;-145.50;100.00;65435.88;4905053;29;20548;-50
2021/06/19 06:03:13;;;;;;;14.20;12.20;;;;;;;-145.50;100.00;65435.88;4907417;29;20131;-51
2021/06/19 06:05:40;;;;;;;14.38;11.38;;;;;;;-145.50;100.00;65435.88;4909998;29;20476;-50
2021/06/19 06:08:06;;;;;;;16.80;12.43;;;;;;;-145.50;100.00;65435.88;4902500;29;20674;-50
2021/06/19 06:10:35;;;;;;;14.13;11.85;;;;;;;-145.50;100.00;65435.88;4888211;29;20056;-50
2021/06/19 06:13:04;;;;;;;14.95;10.98;;;;;;;-145.50;100.00;65435.88;4901267;29;20059;-51
2021/06/19 06:15:30;;;;;;;16.70;12.25;;;;;;;-145.50;100.00;65435.88;4909754;29;20056;-50
2021/06/19 06:17:57;;;;;;;16.30;11.30;;;;;;;-145.50;100.00;65435.88;4904275;29;20106;-51
2021/06/19 06:20:23;;;;;;;14.77;11.35;;;;;;;-145.50;100.00;65435.88;4909226;29;20091;-49
2021/06/19 06:22:51;;;;;;;16.60;11.85;;;;;;;-145.50;100.00;65435.88;4904155;29;20702;-51
2021/06/19 06:25:18;;;;;;;23.50;15.98;;;;;;;-145.50;100.00;65435.88;4900927;29;20083;-50
2021/06/19 06:27:45;;;;;;;31.38;21.70;;;;;;;-145.50;100.00;65435.88;4909317;29;20714;-50
2021/06/19 06:30:13;;;;;;;36.58;22.08;;;;;;;-145.50;100.00;65435.88;4903481;29;20146;-50
2021/06/19 06:32:39;;;;;;;34.47;22.70;;;;;;;-145.50;100.00;65435.88;4909206;29;20568;-51
2021/06/19 06:35:09;;;;;;;39.63;23.17;;;;;;;-145.50;100.00;65435.88;4902521;29;20052;-50
2021/06/19 06:37:37;;;;;;;39.35;22.25;;;;;;;-145.50;100.00;65435.88;4904731;29;20431;-50
2021/06/19 06:40:05;;;;;;;;;;;;;;;-145.50;100.00;65435.88;4903276;29;20171;-51
2021/06/19 06:42:31;;;;;;;38.97;22.67;;;;;;;-145.50;100.00;65435.88;4903046;29;19994;-50
2021/06/19 06:44:58;;;;;;;37.05;23.63;;;;;;;-145.50;100.00;65435.88;4905970;29;20139;-50
2021/06/19 06:47:24;;;;;;;33.85;22.92;;;;;;;-145.50;100.00;65435.88;4899557;29;20147;-50
2021/06/19 06:49:51;;;;;;;37.05;25.45;;;;;;;-145.50;100.00;65435.88;4892077;29;20061;-52
2021/06/19 06:52:17;;;;;;;39.22;26.23;;;;;;;-145.50;100.00;65435.88;4890831;29;20907;-51
2021/06/19 06:54:44;;;;;;;41.33;25.83;;;;;;;-145.50;100.00;65435.88;4908952;29;20564;-51
2021/06/19 06:57:10;;;;;;;39.22;25.75;;;;;;;-145.50;100.00;65435.88;4903506;29;20147;-51
2021/06/19 06:59:37;;;;;;;36.88;22.92;;;;;;;-145.50;100.00;65435.88;4909970;29;20056;-51
2021/06/19 07:02:04;;;;;;;35.30;22.65;;;;;;;-145.50;100.00;65435.88;4902930;29;20244;-52
2021/06/19 07:04:31;;;;;;;37.63;22.45;;;;;;;-145.50;100.00;65435.88;4902438;29;20705;-52
2021/06/19 07:06:58;;;;;;;36.55;22.08;;;;;;;-145.50;100.00;65435.88;4904455;29;20649;-53
2021/06/19 07:09:24;;;;;;;43.17;21.23;;;;;;;-145.50;100.00;65435.88;4902678;29;20548;-53
2021/06/19 07:11:51;;;;;;;34.28;19.63;;;;;;;-145.50;100.00;65435.88;4907866;29;20253;-52
2021/06/19 07:14:17;;;;;;;38.72;19.55;;;;;;;-145.50;100.00;65435.88;4901560;29;20056;-52
2021/06/19 07:16:44;;;;;;;31.73;18.77;;;;;;;-145.50;100.00;65435.88;4908970;29;20650;-52
2021/06/19 07:19:10;;;;;;;30.42;18.25;;;;;;;-145.50;100.00;65435.88;4899507;29;20718;-52
2021/06/19 07:21:37;;;;;;;33.58;19.95;;;;;;;-145.50;100.00;65435.88;4906603;29;20060;-52
2021/06/19 07:24:04;;;;;;;29.58;18.70;;;;;;;-145.50;100.00;65435.88;4907617;29;20091;-54
2021/06/19 07:26:31;;;;;;;32.10;19.13;;;;;;;-145.50;100.00;65435.88;4901950;29;20564;-52
2021/06/19 07:28:58;;;;;;;33.45;18.88;;;;;;;-145.50;100.00;65435.88;4906005;29;20075;-55
2021/06/19 07:31:26;;;;;;;30.17;17.58;;;;;;;-145.50;100.00;65435.88;4901288;29;20080;-52
2021/06/19 07:33:52;;;;;;;28.98;16.45;;;;;;;-145.50;100.00;65435.88;4902141;29;20138;-52
2021/06/19 07:36:19;;;;;;;30.00;18.08;;;;;;;-145.50;100.00;65435.88;4902165;29;20056;-52
2021/06/19 07:38:45;;;;;;;30.55;19.65;;;;;;;-145.50;100.00;65435.88;4909045;29;20139;-54
2021/06/19 07:41:12;;;;;;;29.90;19.45;;;;;;;-145.50;100.00;65435.88;4907293;29;20075;-52
2021/06/19 07:43:39;;;;;;;34.58;21.42;;;;;;;-145.50;100.00;65435.88;4901593;29;20142;-53
2021/06/19 07:46:06;;;;;;;37.50;21.57;;;;;;;-145.50;100.00;65435.88;4905905;29;20201;-52
2021/06/19 07:48:33;;;;;;;36.97;22.50;;;;;;;-145.50;100.00;65435.88;4898686;29;20058;-51
2021/06/19 07:50:59;;;;;;;33.25;20.58;;;;;;;-145.50;100.00;65435.88;4907631;29;20111;-51
2021/06/19 07:53:26;;;;;;;35.05;20.55;;;;;;;-145.50;100.00;65435.88;4901859;29;20155;-52
2021/06/19 07:55:52;;;;;;;29.40;20.48;;;;;;;-145.50;100.00;65435.88;4907581;29;20776;-52
2021/06/19 07:58:19;;;;;;;30.63;20.30;;;;;;;-145.50;100.00;65435.88;4907989;29;20516;-53
2021/06/19 08:00:45;;;;;;;35.83;21.67;;;;;;;-145.50;100.00;65435.88;4896120;29;20661;-52
2021/06/19 08:03:12;;;;;;;30.60;19.65;;;;;;;-145.50;100.00;65435.88;4906584;29;20084;-52
2021/06/19 08:05:39;;;;;;;30.38;19.52;;;;;;;-145.50;100.00;65435.88;4899578;29;20647;-54
2021/06/19 08:08:05;;;;;;;35.38;21.92;;;;;;;-145.50;100.00;65435.88;4908128;29;20111;-53
2021/06/19 08:10:32;;;;;;;31.73;19.83;;;;;;;-145.50;100.00;65435.88;4900660;29;20056;-53
2021/06/19 08:12:58;;;;;;;38.13;22.02;;;;;;;-145.50;100.00;65435.88;4901501;29;20076;-53
2021/06/19 08:15:26;;;;;;;33.17;20.73;;;;;;;-145.50;100.00;65435.88;4905131;29;20052;-52
2021/06/19 08:17:54;;;;;;;37.72;22.13;;;;;;;-145.50;100.00;65435.88;4901967;29;20079;-54
2021/06/19 08:20:20;;;;;;;38.22;22.73;;;;;;;-145.50;100.00;65435.88;4909014;29;20064;-54
2021/06/19 08:22:47;;;;;;;36.60;21.85;;;;;;;-145.50;100.00;65435.88;4913556;29;20060;-52
2021/06/19 08:25:14;;;;;;;38.92;22.33;;;;;;;-145.50;100.00;65435.88;4907637;29;20051;-52
2021/06/19 08:27:41;;;;;;;45.10;25.20;;;;;;;-145.50;100.00;65435.88;4900839;29;20111;-51
2021/06/19 08:30:08;;;;;;;37.50;24.58;;;;;;;-145.50;100.00;65435.88;4893803;29;20107;-54
2021/06/19 08:32:35;;;;;;;43.90;26.08;;;;;;;-145.50;100.00;65435.88;4901766;29;20583;-53
2021/06/19 08:35:02;;;;;;;46.53;27.73;;;;;;;-145.50;100.00;65435.88;4907589;29;20083;-51
2021/06/19 08:37:29;;;;;;;40.40;25.33;;;;;;;-145.50;100.00;65435.88;4907998;29;20143;-52
2021/06/19 08:39:57;;;;;;;41.75;26.17;;;;;;;-145.50;100.00;65435.88;4897945;29;20139;-52
2021/06/19 08:42:24;;;;;;;40.10;25.30;;;;;;;-145.50;100.00;65435.88;4904206;29;20123;-54
2021/06/19 08:44:51;;;;;;;45.97;25.53;;;;;;;-145.50;100.00;65435.88;4900334;29;20198;-51
2021/06/19 08:47:18;;;;;;;46.30;25.48;;;;;;;-145.50;100.00;65435.88;4908079;29;20374;-51
2021/06/19 08:49:46;;;;;;;47.20;27.65;;;;;;;-145.50;100.00;65435.88;4896701;29;20482;-52
2021/06/19 08:52:15;;;;;;;46.40;28.02;;;;;;;-145.50;100.00;65435.88;4896204;29;20155;-54
2021/06/19 08:54:41;;;;;;;45.25;27.58;;;;;;;-145.50;100.00;65435.88;4890512;29;20473;-52
2021/06/19 08:57:10;;;;;;;46.50;28.27;;;;;;;-145.50;100.00;65435.88;4898800;29;20139;-53
2021/06/19 08:59:38;;;;;;;42.50;27.13;;;;;;;-145.50;100.00;65435.88;4904589;29;20134;-54
2021/06/19 09:02:08;;;;;;;40.90;26.35;;;;;;;-145.50;100.00;65435.88;4884861;29;20095;-52
2021/06/19 09:04:56;;;;;;;37.97;25.17;;;;;;;-145.50;100.00;65435.88;4897766;29;20088;-51
2021/06/19 09:07:44;;;;;;;40.28;26.70;;;;;;;-145.50;100.00;65435.88;4888784;29;20059;-53
2021/06/19 09:10:27;;;;;;;34.03;23.95;;;;;;;-145.50;100.00;65435.88;4895853;29;20091;-53
2021/06/19 09:13:03;;;;;;;35.50;24.45;;;;;;;-145.50;100.00;65435.88;4882439;29;20148;-52
2021/06/19 09:15:33;;;;;;;37.53;24.05;;;;;;;-145.50;100.00;65435.88;4898347;29;20062;-54
2021/06/19 09:18:12;;;;;;;33.08;23.77;;;;;;;-145.50;100.00;65435.88;4886421;29;20052;-53
2021/06/19 09:20:59;;;;;;;30.50;22.80;;;;;;;-145.50;100.00;65435.88;4898163;29;20158;-52
2021/06/19 09:23:44;;;;;;;34.13;24.42;;;;;;;-145.50;100.00;65435.88;4888414;29;20096;-52
2021/06/19 09:26:14;;;;;;;33.22;24.80;;;;;;;-145.50;100.00;65435.88;4904802;29;20464;-54
2021/06/19 09:29:04;;;;;;;35.60;24.02;;;;;;;-145.50;100.00;65435.88;4901280;29;20139;-52
2021/06/19 09:31:45;;;;;;;38.25;23.17;;;;;;;-145.50;100.00;65435.88;4905432;29;20142;-51
2021/06/19 09:34:24;;;;;;;31.65;20.70;;;;;;;-145.50;100.00;65435.88;4905962;29;20119;-54
2021/06/19 09:36:52;;;;;;;35.60;23.83;;;;;;;-145.50;100.00;65435.88;4899354;29;20596;-53
2021/06/19 09:39:20;;;;;;;;;;;;;;;-145.50;100.00;65435.88;4903132;29;20084;-52
2021/06/19 09:41:51;;;;;;;37.08;25.15;;;;;;;-145.50;100.00;65435.88;4899362;29;19933;-52
2021/06/19 09:44:37;;;;;;;35.25;24.27;;;;;;;-145.50;100.00;65435.88;4906868;29;20143;-52
2021/06/19 09:47:08;;;;;;;39.00;25.73;;;;;;;-145.50;100.00;65435.88;4892176;29;20679;-54
2021/06/19 09:49:38;;;;;;;34.95;23.30;;;;;;;-145.50;100.00;65435.88;4896751;29;20072;-52
2021/06/19 09:52:05;;;;;;;39.78;24.92;;;;;;;-145.50;100.00;65435.88;4884862;29;20064;-52
2021/06/19 09:54:42;;;;;;;40.15;24.35;;;;;;;-145.50;100.00;65435.88;4898237;29;20576;-53
2021/06/19 09:57:35;;;;;;;37.13;25.63;;;;;;;-145.50;100.00;65435.88;4900056;29;20103;-52
2021/06/19 10:00:03;;;;;;;38.97;27.08;;;;;;;-145.50;100.00;65435.88;4906395;29;20056;-51
2021/06/19 10:02:30;;;;;;;38.25;26.40;;;;;;;-145.50;100.00;65435.88;4906224;29;20147;-51
2021/06/19 10:04:57;;;;;;;37.78;26.23;;;;;;;-145.50;100.00;65435.88;4880879;29;20552;-53
2021/06/19 10:07:25;;;;;;;36.30;24.98;;;;;;;-145.50;100.00;65435.88;4902005;29;20140;-53
2021/06/19 10:09:54;;;;;;;36.05;25.80;;;;;;;-145.50;100.00;65435.88;4899349;29;20179;-52
2021/06/19 10:12:22;;;;;;;36.30;26.10;;;;;;;-145.50;100.00;65435.88;4906050;29;20151;-51
2021/06/19 10:14:53;;;;;;;34.00;24.42;;;;;;;-145.50;100.00;65435.88;4899895;29;20063;-51
2021/06/19 10:17:25;;;;;;;33.97;24.48;;;;;;;-145.50;100.00;65435.88;4885812;29;20139;-51
2021/06/19 10:19:54;;;;;;;33.17;25.45;;;;;;;-145.50;100.00;65435.88;4894119;29;20098;-53
2021/06/19 10:22:28;;;;;;;34.88;23.95;;;;;;;-145.50;100.00;65435.88;4906140;29;20187;-51
2021/06/19 10:24:57;;;;;;;33.75;25.88;;;;;;;-145.50;100.00;65435.88;4906770;29;20471;-51
2021/06/19 10:27:28;;;;;;;36.25;26.42;;;;;;;-145.50;100.00;65435.88;4904989;29;20925;-53
2021/06/19 10:29:59;;;;;;;38.03;26.70;;;;;;;-145.50;100.00;65435.88;4906799;29;20135;-52
2021/06/19 10:32:47;;;;;;;35.05;26.05;;;;;;;-145.50;100.00;65435.88;4896251;29;20120;-53
2021/06/19 10:35:17;;;;;;;33.17;25.35;;;;;;;-145.50;100.00;65435.88;4901925;29;20536;-53
2021/06/19 10:37:47;;;;;;;34.08;25.15;;;;;;;-145.50;100.00;65435.88;4901198;29;20056;-52
2021/06/19 10:40:32;;;;;;;32.72;25.60;;;;;;;-145.50;100.00;65435.88;4907054;29;20151;-54
2021/06/19 10:43:13;;;;;;;34.88;25.80;;;;;;;-145.50;100.00;65435.88;4903776;29;20059;-54
2021/06/19 10:45:45;;;;;;;37.40;26.42;;;;;;;-145.50;100.00;65435.88;4906931;29;20790;-54
2021/06/19 10:48:14;;;;;;;40.67;29.88;;;;;;;-145.50;100.00;65435.88;4900606;29;20159;-53
2021/06/19 10:50:47;;;;;;;38.08;27.63;;;;;;;-145.50;100.00;65435.88;4910310;29;20048;-53
2021/06/19 10:53:16;;;;;;;35.08;27.98;;;;;;;-145.50;100.00;65435.88;4898872;29;20092;-52
2021/06/19 10:55:42;;;;;;;38.88;28.80;;;;;;;-145.50;100.00;65435.88;4905675;29;20135;-51
2021/06/19 10:58:29;;;;;;;39.90;28.35;;;;;;;-145.50;100.00;65435.88;4909923;29;20100;-51
2021/06/19 11:01:03;;;;;;;39.23;27.80;;;;;;;-145.50;100.00;65435.88;4900507;29;20079;-51
2021/06/19 11:03:38;;;;;;;41.58;29.40;;;;;;;-145.50;100.00;65435.88;4891932;29;20299;-51
2021/06/19 11:06:16;;;;;;;44.45;31.67;;;;;;;-145.50;100.00;65435.88;4896354;29;20067;-51
2021/06/19 11:09:25;;;;;;;39.30;28.50;;;;;;;-145.50;100.00;65435.88;4900278;29;20119;-51